Time;durP1;ratioP1;P1;durP2;ratioP2;P2;SDS_P1;SDS_P2;PMS_P1;PMS_P2;Temp;Humidity;BMP_temperature;BMP_pressure;BME280_temperature;BME280_humidity;BME280_pressure;Samples;Min_cycle;Max_cycle;Signal;HPM_P1;HPM_P2
2022/05/27 00:01:19;;;;;;;0.00;0.00;;;14.10;99.90;;;;;;5039257;28;20139;-85
2022/05/27 00:03:45;;;;;;;0.25;0.25;;;14.10;99.90;;;;;;5025620;28;20052;-86
2022/05/27 00:06:10;;;;;;;0.10;0.10;;;14.10;99.90;;;;;;5019434;28;20053;-81
2022/05/27 00:08:36;;;;;;;0.10;0.10;;;14.00;99.90;;;;;;5019603;28;20041;-81
2022/05/27 00:11:02;;;;;;;0.25;0.25;;;14.00;99.90;;;;;;5019548;28;20087;-81
2022/05/27 00:13:29;;;;;;;0.30;0.30;;;14.00;99.90;;;;;;5053660;28;20082;-81
2022/05/27 00:15:55;;;;;;;0.00;0.00;;;14.00;99.90;;;;;;5038665;28;20036;-81
2022/05/27 00:18:21;;;;;;;1.55;0.75;;;14.00;99.90;;;;;;5055237;28;20055;-81
2022/05/27 00:20:47;;;;;;;0.20;0.20;;;14.00;99.90;;;;;;5056847;28;20032;-81
2022/05/27 00:23:14;;;;;;;0.00;0.00;;;14.00;99.90;;;;;;5054560;28;20082;-90
2022/05/27 00:25:40;;;;;;;0.03;0.03;;;13.90;99.90;;;;;;5025620;28;20553;-89
2022/05/27 00:28:07;;;;;;;0.10;0.10;;;13.80;99.90;;;;;;5055583;28;20174;-90
2022/05/27 00:30:33;;;;;;;0.08;0.08;;;13.70;99.90;;;;;;5022655;28;20509;-90
2022/05/27 00:32:58;;;;;;;0.20;0.20;;;13.60;99.90;;;;;;5038310;28;20032;-90
2022/05/27 00:35:24;;;;;;;0.43;0.43;;;13.50;99.90;;;;;;5055141;28;20055;-90
2022/05/27 00:37:50;;;;;;;1.58;1.48;;;13.40;99.90;;;;;;5038827;28;20032;-90
2022/05/27 00:40:17;;;;;;;0.00;0.00;;;13.40;99.90;;;;;;5038870;28;20425;-84
2022/05/27 00:42:45;;;;;;;0.30;0.28;;;13.30;99.90;;;;;;5055549;28;20115;-84
2022/05/27 00:45:24;;;;;;;0.03;0.03;;;13.30;99.90;;;;;;5054814;28;20079;-81
2022/05/27 00:47:53;;;;;;;0.20;0.20;;;13.20;99.90;;;;;;5055600;28;20044;-81
2022/05/27 00:50:25;;;;;;;0.43;0.38;;;13.10;99.90;;;;;;5054823;28;22108;-81
2022/05/27 00:52:51;;;;;;;0.20;0.20;;;13.10;99.90;;;;;;5038718;28;20041;-81
2022/05/27 00:55:20;;;;;;;0.17;0.17;;;13.10;99.90;;;;;;5038845;28;20040;-81
2022/05/27 00:57:54;;;;;;;0.15;0.15;;;13.10;99.90;;;;;;5038543;28;20040;-87
2022/05/27 01:00:22;;;;;;;0.00;0.00;;;13.00;99.90;;;;;;5054873;28;20044;-87
2022/05/27 01:02:49;;;;;;;0.10;0.10;;;13.00;99.90;;;;;;5038465;28;20043;-88
2022/05/27 01:05:19;;;;;;;0.10;0.10;;;13.00;99.90;;;;;;5071121;28;20056;-88
2022/05/27 01:07:45;;;;;;;0.35;0.30;;;13.00;99.90;;;;;;5054849;28;20047;-88
2022/05/27 01:10:14;;;;;;;0.00;0.00;;;12.90;99.90;;;;;;5054936;28;20044;-87
2022/05/27 01:12:46;;;;;;;0.10;0.10;;;12.80;99.90;;;;;;5053597;28;20086;-85
2022/05/27 01:15:21;;;;;;;0.40;0.20;;;12.80;99.90;;;;;;5054763;28;20032;-85
2022/05/27 01:18:08;;;;;;;0.00;0.00;;;12.80;99.90;;;;;;5054738;28;20072;-85
2022/05/27 01:20:46;;;;;;;0.10;0.10;;;12.70;99.90;;;;;;5055092;28;20044;-85
2022/05/27 01:23:39;;;;;;;0.15;0.15;;;12.60;99.90;;;;;;5055443;28;20033;-85
2022/05/27 01:26:43;;;;;;;0.10;0.10;;;12.60;99.90;;;;;;5051753;28;20037;-85
2022/05/27 01:29:46;;;;;;;0.05;0.05;;;12.60;99.90;;;;;;5045474;28;20386;-87
2022/05/27 01:32:39;;;;;;;0.00;0.00;;;12.50;99.90;;;;;;5054705;28;20371;-88
2022/05/27 01:35:27;;;;;;;0.38;0.38;;;12.40;99.90;;;;;;5029787;28;20076;-87
2022/05/27 01:38:05;;;;;;;0.00;0.00;;;12.30;99.90;;;;;;5038133;28;20094;-87
2022/05/27 01:40:52;;;;;;;0.00;0.00;;;12.30;99.90;;;;;;5036988;28;20041;-87
2022/05/27 01:43:59;;;;;;;0.00;0.00;;;12.20;99.90;;;;;;5054437;28;20110;-87
2022/05/27 01:46:49;;;;;;;0.10;0.10;;;12.10;99.90;;;;;;5058154;28;20029;-87
2022/05/27 01:49:31;;;;;;;0.00;0.00;;;12.10;99.90;;;;;;5031314;28;20078;-87
2022/05/27 01:52:35;;;;;;;0.60;0.60;;;12.10;99.90;;;;;;5057766;28;20068;-87
2022/05/27 01:55:18;;;;;;;0.00;0.00;;;12.00;99.90;;;;;;5052332;28;20119;-87
2022/05/27 01:58:15;;;;;;;0.10;0.10;;;12.00;99.90;;;;;;5041731;28;20045;-87
2022/05/27 02:00:44;;;;;;;0.10;0.10;;;12.00;99.90;;;;;;5039283;28;20106;-87
2022/05/27 02:03:39;;;;;;;0.00;0.00;;;12.00;99.90;;;;;;5041618;28;20044;-85
2022/05/27 02:06:32;;;;;;;0.00;0.00;;;12.00;99.90;;;;;;5021648;28;20122;-85
2022/05/27 02:09:22;;;;;;;0.03;0.03;;;12.00;99.90;;;;;;5041553;28;20047;-85
2022/05/27 02:11:57;;;;;;;0.20;0.20;;;12.00;99.90;;;;;;5057621;28;20037;-85
2022/05/27 02:14:37;;;;;;;0.10;0.10;;;11.90;99.90;;;;;;5041164;28;20036;-85
2022/05/27 02:17:11;;;;;;;0.00;0.00;;;11.90;99.90;;;;;;5049559;28;20044;-86
2022/05/27 02:19:44;;;;;;;0.00;0.00;;;11.90;99.90;;;;;;5057585;28;20048;-87
2022/05/27 02:22:19;;;;;;;0.00;0.00;;;11.90;99.90;;;;;;5041319;28;20082;-88
2022/05/27 02:24:48;;;;;;;0.10;0.10;;;11.80;99.90;;;;;;5041318;28;20124;-87
2022/05/27 02:27:21;;;;;;;0.10;0.10;;;11.70;99.90;;;;;;5057261;28;20041;-87
2022/05/27 02:29:53;;;;;;;0.00;0.00;;;11.70;99.90;;;;;;5057740;28;20042;-87
2022/05/27 02:32:30;;;;;;;0.10;0.10;;;11.70;99.90;;;;;;5040866;28;20389;-87
2022/05/27 02:35:24;;;;;;;0.10;0.10;;;11.60;99.90;;;;;;5057588;28;20041;-87
2022/05/27 02:37:52;;;;;;;0.63;0.50;;;11.50;99.90;;;;;;5054759;28;20056;-85
2022/05/27 02:40:26;;;;;;;2.00;0.40;;;11.40;99.90;;;;;;5056340;28;20502;-85
2022/05/27 02:43:32;;;;;;;0.20;0.20;;;11.40;99.90;;;;;;5058170;28;20390;-85
2022/05/27 02:46:07;;;;;;;0.00;0.00;;;11.40;99.90;;;;;;5057314;28;20497;-85
2022/05/27 02:48:40;;;;;;;0.10;0.10;;;11.30;99.90;;;;;;5040509;28;20452;-85
2022/05/27 02:51:29;;;;;;;0.00;0.00;;;11.30;99.90;;;;;;5040358;28;20059;-85
2022/05/27 02:54:01;;;;;;;0.00;0.00;;;11.30;99.90;;;;;;5040582;28;20049;-81
2022/05/27 02:56:32;;;;;;;0.00;0.00;;;11.30;99.90;;;;;;5039634;28;20036;-81
2022/05/27 02:58:58;;;;;;;0.20;0.20;;;11.30;99.90;;;;;;5056897;28;20036;-81
2022/05/27 03:01:23;;;;;;;0.00;0.00;;;11.30;99.90;;;;;;5040456;28;20131;-81
2022/05/27 03:03:50;;;;;;;0.10;0.10;;;11.30;99.90;;;;;;5057330;28;20043;-81
2022/05/27 03:06:28;;;;;;;0.20;0.20;;;11.30;99.90;;;;;;5056389;28;20044;-81
2022/05/27 03:09:04;;;;;;;0.10;0.10;;;11.30;99.90;;;;;;5040403;28;20041;-81
2022/05/27 03:12:05;;;;;;;0.10;0.10;;;11.30;99.90;;;;;;5053230;28;20470;-81
2022/05/27 03:14:40;;;;;;;2.17;0.40;;;11.30;99.90;;;;;;5056657;28;20645;-81
2022/05/27 03:17:45;;;;;;;0.00;0.00;;;11.30;99.90;;;;;;5040005;28;20109;-81
2022/05/27 03:20:45;;;;;;;0.00;0.00;;;11.30;99.90;;;;;;5070457;22;20076;-84
2022/05/27 03:23:26;;;;;;;0.70;0.68;;;11.20;99.90;;;;;;5039421;28;20055;-85
2022/05/27 03:26:24;;;;;;;0.05;0.05;;;11.20;99.90;;;;;;5057535;28;20044;-90
2022/05/27 03:29:27;;;;;;;0.17;0.17;;;11.20;99.90;;;;;;5056910;28;20040;-90
2022/05/27 03:32:01;;;;;;;0.30;0.30;;;11.20;99.90;;;;;;5039767;28;20052;-90
2022/05/27 03:34:44;;;;;;;0.00;0.00;;;11.10;99.90;;;;;;5039901;28;20086;-90
2022/05/27 03:37:20;;;;;;;0.10;0.10;;;11.20;99.90;;;;;;5039659;28;20048;-90
2022/05/27 03:39:58;;;;;;;0.00;0.00;;;11.10;99.90;;;;;;5056426;28;20047;-90
2022/05/27 03:42:24;;;;;;;0.10;0.10;;;11.10;99.90;;;;;;5056131;28;20040;-85
2022/05/27 03:45:10;;;;;;;0.08;0.05;;;11.00;99.90;;;;;;5039417;28;20440;-85
2022/05/27 03:47:37;;;;;;;0.10;0.10;;;11.20;99.90;;;;;;5044206;28;20043;-85
2022/05/27 03:50:05;;;;;;;0.08;0.08;;;11.80;99.90;;;;;;5072335;28;20302;-85
2022/05/27 03:52:46;;;;;;;0.88;0.88;;;11.30;99.90;;;;;;5072154;28;20548;-85
2022/05/27 03:55:14;;;;;;;0.10;0.10;;;11.40;99.90;;;;;;5039276;28;20036;-85
2022/05/27 03:57:40;;;;;;;0.10;0.10;;;11.40;99.90;;;;;;5072338;28;20037;-85
2022/05/27 04:00:10;;;;;;;0.00;0.00;;;11.40;99.90;;;;;;5056301;28;20566;-90
2022/05/27 04:02:36;;;;;;;0.85;0.85;;;11.40;99.90;;;;;;5039650;28;20041;-89
2022/05/27 04:05:03;;;;;;;0.10;0.10;;;11.50;99.90;;;;;;5056218;28;20040;-90
2022/05/27 04:07:29;;;;;;;2.13;1.88;;;11.50;99.90;;;;;;5038907;28;20039;-90
2022/05/27 04:09:55;;;;;;;0.00;0.00;;;11.50;99.90;;;;;;5055920;28;20478;-89
2022/05/27 04:12:21;;;;;;;0.70;0.45;;;11.60;99.90;;;;;;5072685;28;20044;-90
2022/05/27 04:14:54;;;;;;;3.60;0.28;;;11.70;99.90;;;;;;5039399;28;20048;-90
2022/05/27 04:17:32;;;;;;;0.25;0.25;;;11.70;99.90;;;;;;5039580;28;20044;-85
2022/05/27 04:20:02;;;;;;;0.47;0.47;;;11.80;99.90;;;;;;5006059;28;20403;-85
2022/05/27 04:22:28;;;;;;;0.00;0.00;;;11.80;99.90;;;;;;5053104;28;20081;-85
2022/05/27 04:24:54;;;;;;;0.35;0.20;;;11.80;99.90;;;;;;5052062;28;20052;-85
2022/05/27 04:27:20;;;;;;;0.00;0.00;;;11.80;99.90;;;;;;5024569;28;20048;-85
2022/05/27 04:29:49;;;;;;;0.03;0.03;;;11.80;99.90;;;;;;5049178;28;20116;-85
2022/05/27 04:32:15;;;;;;;0.00;0.00;;;11.80;99.90;;;;;;5052002;28;20041;-90
2022/05/27 04:34:41;;;;;;;0.10;0.10;;;11.80;99.90;;;;;;5052451;28;20040;-90
2022/05/27 04:37:09;;;;;;;0.20;0.20;;;11.90;99.90;;;;;;5035806;28;20045;-90
2022/05/27 04:39:34;;;;;;;0.00;0.00;;;11.90;99.90;;;;;;5035763;28;20044;-90
2022/05/27 04:42:00;;;;;;;0.00;0.00;;;12.00;99.90;;;;;;5052029;28;20406;-90
2022/05/27 04:44:26;;;;;;;0.00;0.00;;;12.00;99.90;;;;;;5019459;28;20041;-90
2022/05/27 04:46:52;;;;;;;0.00;0.00;;;12.00;99.90;;;;;;5035511;28;20041;-90
2022/05/27 04:52:03;;;;;;;0.00;0.00;;;11.90;99.90;;;;;;5037688;28;20049;-83
2022/05/27 04:54:32;;;;;;;0.10;0.10;;;11.90;99.90;;;;;;5048731;28;20033;-83
2022/05/27 04:56:59;;;;;;;0.00;0.00;;;11.90;99.90;;;;;;5018905;28;20345;-83
2022/05/27 04:59:25;;;;;;;0.00;0.00;;;11.90;99.90;;;;;;5035345;28;20040;-83
2022/05/27 05:01:51;;;;;;;0.30;0.20;;;11.90;99.90;;;;;;5051927;28;20037;-83
2022/05/27 05:04:17;;;;;;;0.50;0.50;;;11.90;99.90;;;;;;5051324;28;20056;-83
2022/05/27 05:06:44;;;;;;;0.05;0.05;;;11.90;99.90;;;;;;5051927;28;20462;-84
2022/05/27 05:09:10;;;;;;;0.45;0.45;;;11.90;99.90;;;;;;5018455;28;20044;-83
2022/05/27 05:11:36;;;;;;;0.22;0.10;;;11.90;99.90;;;;;;5035370;28;20127;-83
2022/05/27 05:14:01;;;;;;;0.22;0.22;;;11.90;99.90;;;;;;5051276;28;20084;-83
2022/05/27 05:16:28;;;;;;;0.00;0.00;;;11.90;99.90;;;;;;5051793;28;20534;-83
2022/05/27 05:18:54;;;;;;;0.00;0.00;;;12.00;99.90;;;;;;5052077;28;20132;-83
2022/05/27 05:21:19;;;;;;;0.25;0.25;;;12.00;99.90;;;;;;5038292;28;20131;-83
2022/05/27 05:23:45;;;;;;;0.52;0.52;;;12.00;99.90;;;;;;5038599;28;20397;-83
2022/05/27 05:26:11;;;;;;;0.35;0.35;;;12.10;99.90;;;;;;5039176;28;20037;-83
2022/05/27 05:28:37;;;;;;;0.00;0.00;;;12.20;99.90;;;;;;5039275;28;20450;-83
2022/05/27 05:31:03;;;;;;;0.10;0.10;;;12.70;99.90;;;;;;5022483;28;20068;-83
2022/05/27 05:33:29;;;;;;;0.00;0.00;;;12.80;99.90;;;;;;5010319;28;20040;-83
2022/05/27 05:35:57;;;;;;;0.60;0.17;;;13.40;99.90;;;;;;5055398;28;20441;-84
2022/05/27 05:38:22;;;;;;;0.57;0.57;;;13.80;99.90;;;;;;5038707;28;20067;-83
2022/05/27 05:40:49;;;;;;;0.22;0.22;;;13.90;99.90;;;;;;5021960;28;20494;-83
2022/05/27 05:43:15;;;;;;;0.10;0.10;;;13.90;99.90;;;;;;5054702;28;20037;-84
2022/05/27 05:45:41;;;;;;;0.55;0.30;;;13.80;99.90;;;;;;5038151;28;20514;-83
2022/05/27 05:48:07;;;;;;;0.00;0.00;;;13.90;99.90;;;;;;5038168;28;20037;-83
2022/05/27 05:50:33;;;;;;;0.22;0.22;;;14.10;99.90;;;;;;5054601;28;20122;-83
2022/05/27 05:52:59;;;;;;;0.00;0.00;;;14.30;99.90;;;;;;5033270;28;20072;-84
2022/05/27 05:55:26;;;;;;;0.00;0.00;;;14.70;99.90;;;;;;5053372;28;20055;-90
2022/05/27 05:57:52;;;;;;;0.10;0.10;;;15.10;99.90;;;;;;5055054;28;20056;-91
2022/05/27 06:00:24;;;;;;;0.10;0.10;;;15.10;99.90;;;;;;5054853;28;20045;-91
2022/05/27 06:02:50;;;;;;;0.28;0.28;;;15.40;99.90;;;;;;5054943;28;20070;-91
2022/05/27 06:05:16;;;;;;;0.08;0.03;;;15.60;99.90;;;;;;5022114;28;20391;-92
2022/05/27 06:07:42;;;;;;;2.38;0.47;;;15.90;99.90;;;;;;5055053;28;20036;-91
2022/05/27 06:10:10;;;;;;;0.08;0.08;;;16.20;99.90;;;;;;5037979;28;20033;-91
2022/05/27 06:12:37;;;;;;;0.00;0.00;;;16.70;99.90;;;;;;5018236;28;20037;-89
2022/05/27 06:15:05;;;;;;;0.47;0.38;;;16.80;99.90;;;;;;5047794;28;20044;-88
2022/05/27 06:17:31;;;;;;;0.00;0.00;;;17.10;99.90;;;;;;5034079;28;20515;-88
2022/05/27 06:19:56;;;;;;;2.75;1.85;;;17.20;99.90;;;;;;5045255;28;20115;-89
2022/05/27 06:22:23;;;;;;;0.98;0.98;;;17.50;99.90;;;;;;5054204;28;20106;-88
2022/05/27 06:24:48;;;;;;;0.63;0.57;;;17.50;99.40;;;;;;5053105;28;20075;-88
2022/05/27 06:27:14;;;;;;;0.00;0.00;;;17.30;97.40;;;;;;5037207;28;20033;-88
2022/05/27 06:35:08;;;;;;;0.85;0.63;;;17.70;96.10;;;;;;5039831;28;20090;-88
2022/05/27 06:37:34;;;;;;;0.57;0.52;;;17.70;95.80;;;;;;5037083;28;20040;-88
2022/05/27 06:40:04;;;;;;;0.52;0.40;;;17.60;93.60;;;;;;5053696;28;20070;-88
2022/05/27 06:42:29;;;;;;;0.00;0.00;;;17.30;94.50;;;;;;5020081;28;20037;-88
2022/05/27 06:44:55;;;;;;;0.13;0.13;;;17.00;95.20;;;;;;5036423;28;20029;-88
2022/05/27 06:47:21;;;;;;;0.82;0.82;;;17.30;95.60;;;;;;5037050;28;20476;-85
2022/05/27 06:49:49;;;;;;;0.93;0.55;;;17.70;94.90;;;;;;5036995;28;20044;-85
2022/05/27 06:52:15;;;;;;;0.55;0.52;;;17.90;95.20;;;;;;5054214;28;20049;-85
2022/05/27 06:54:42;;;;;;;0.35;0.35;;;17.80;94.00;;;;;;5020990;28;20044;-85
2022/05/27 06:57:08;;;;;;;3.05;0.57;;;17.40;93.50;;;;;;5024752;28;20040;-85
2022/05/27 06:59:34;;;;;;;0.10;0.10;;;17.50;94.60;;;;;;5053470;28;20044;-85
2022/05/27 07:02:00;;;;;;;1.25;0.52;;;17.30;95.10;;;;;;5020355;28;20047;-85
2022/05/27 07:04:26;;;;;;;0.30;0.30;;;17.10;95.90;;;;;;5037242;28;20041;-85
2022/05/27 07:06:52;;;;;;;0.20;0.20;;;17.20;95.30;;;;;;5036782;28;20048;-85
2022/05/27 07:09:22;;;;;;;0.55;0.55;;;17.50;95.10;;;;;;5050729;28;20460;-85
2022/05/27 07:11:50;;;;;;;0.05;0.05;;;17.30;94.40;;;;;;5052662;28;20048;-85
2022/05/27 07:14:17;;;;;;;0.70;0.28;;;17.40;94.50;;;;;;5052916;28;20068;-85
2022/05/27 07:16:45;;;;;;;0.22;0.22;;;17.90;93.80;;;;;;5053468;28;20098;-85
2022/05/27 07:19:12;;;;;;;0.47;0.47;;;18.50;94.40;;;;;;5052897;28;20045;-85
2022/05/27 07:21:39;;;;;;;2.90;0.45;;;18.20;94.20;;;;;;5036566;28;20049;-85
2022/05/27 07:24:09;;;;;;;0.10;0.10;;;18.10;93.80;;;;;;5053131;28;20119;-84
2022/05/27 07:26:36;;;;;;;1.90;1.75;;;17.80;95.40;;;;;;5035974;28;20083;-87
2022/05/27 07:29:03;;;;;;;1.85;0.17;;;17.20;94.10;;;;;;5052684;28;20045;-85
2022/05/27 07:31:29;;;;;;;0.00;0.00;;;16.80;96.20;;;;;;5053118;28;20525;-85
2022/05/27 07:33:55;;;;;;;0.08;0.08;;;16.60;97.00;;;;;;5036803;28;20041;-85
2022/05/27 07:36:21;;;;;;;0.20;0.20;;;16.30;99.00;;;;;;5004300;28;20087;-90
2022/05/27 07:38:51;;;;;;;1.30;0.80;;;16.50;97.10;;;;;;5019976;28;20077;-92
2022/05/27 07:41:17;;;;;;;6.60;0.75;;;16.40;97.30;;;;;;5039895;28;20047;-92
2022/05/27 07:43:43;;;;;;;2.17;0.32;;;16.70;97.60;;;;;;5048126;28;20038;-92
2022/05/27 07:46:09;;;;;;;0.20;0.20;;;17.40;96.90;;;;;;5052837;28;20131;-90
2022/05/27 07:48:35;;;;;;;1.98;1.17;;;18.10;95.20;;;;;;5033280;28;20440;-91
2022/05/27 07:51:04;;;;;;;1.45;0.90;;;18.40;93.70;;;;;;5025753;28;20127;-90
2022/05/27 07:53:30;;;;;;;0.32;0.20;;;18.90;94.50;;;;;;5051767;28;20075;-85
2022/05/27 07:55:56;;;;;;;2.90;0.90;;;19.40;92.90;;;;;;5035752;28;20491;-85
2022/05/27 07:58:21;;;;;;;0.00;0.00;;;19.60;91.40;;;;;;5051110;28;20047;-85
2022/05/27 08:00:48;;;;;;;0.55;0.47;;;20.00;88.00;;;;;;5033584;28;20081;-86
2022/05/27 08:03:14;;;;;;;0.03;0.03;;;19.90;87.70;;;;;;5037922;28;20119;-85
2022/05/27 08:05:40;;;;;;;0.50;0.50;;;20.20;84.50;;;;;;5034647;28;20037;-85
2022/05/27 08:08:07;;;;;;;0.10;0.10;;;20.10;88.00;;;;;;5039140;28;20048;-85
2022/05/27 08:10:35;;;;;;;1.10;0.75;;;20.30;88.00;;;;;;5052580;28;20040;-88
2022/05/27 08:13:01;;;;;;;2.35;1.45;;;20.60;87.80;;;;;;5051504;28;20040;-88
2022/05/27 08:15:27;;;;;;;0.00;0.00;;;20.50;84.60;;;;;;5051000;28;20380;-88
2022/05/27 08:17:54;;;;;;;0.82;0.82;;;20.90;87.10;;;;;;5033984;28;20109;-88
2022/05/27 08:20:23;;;;;;;0.08;0.08;;;21.10;84.50;;;;;;5043904;28;20526;-87
2022/05/27 08:22:50;;;;;;;1.55;0.90;;;21.00;84.80;;;;;;5034929;28;20087;-88
2022/05/27 08:25:16;;;;;;;0.05;0.05;;;20.80;81.50;;;;;;5051107;28;20498;-88
2022/05/27 08:27:43;;;;;;;1.00;1.00;;;21.10;81.00;;;;;;5051494;28;20063;-87
2022/05/27 08:30:11;;;;;;;1.25;0.57;;;21.40;79.30;;;;;;5051505;28;20036;-87
2022/05/27 08:32:37;;;;;;;0.10;0.10;;;21.00;79.00;;;;;;5035013;28;20479;-88
2022/05/27 08:38:07;;;;;;;0.47;0.47;;;21.10;80.70;;;;;;5051437;28;20048;-87
2022/05/27 08:40:45;;;;;;;0.93;0.82;;;20.90;80.60;;;;;;5033647;28;20120;-88
2022/05/27 08:43:47;;;;;;;0.00;0.00;;;21.40;79.30;;;;;;5041573;28;20478;-86
2022/05/27 08:46:34;;;;;;;0.30;0.30;;;21.50;80.10;;;;;;5051339;28;20103;-86
2022/05/27 08:49:07;;;;;;;7.03;1.55;;;21.10;77.60;;;;;;5035522;28;20044;-85
2022/05/27 08:51:43;;;;;;;0.10;0.10;;;20.70;81.00;;;;;;5034592;28;20044;-85
2022/05/27 08:54:21;;;;;;;0.20;0.20;;;20.60;78.10;;;;;;5035982;28;20036;-85
2022/05/27 08:59:41;;;;;;;0.00;0.00;;;21.50;79.50;;;;;;5059881;28;20040;-87
2022/05/27 09:02:15;;;;;;;0.32;0.32;;;21.80;76.50;;;;;;5054896;28;20501;-88
2022/05/27 09:04:53;;;;;;;0.17;0.15;;;20.40;79.00;;;;;;5055109;28;20090;-87
2022/05/27 09:07:43;;;;;;;0.10;0.10;;;20.30;80.30;;;;;;5037523;28;20063;-87
2022/05/27 09:10:40;;;;;;;0.43;0.43;;;20.70;80.90;;;;;;5019191;28;20395;-88
2022/05/27 09:13:21;;;;;;;2.63;1.42;;;21.40;78.90;;;;;;5022574;28;20049;-87
2022/05/27 09:16:16;;;;;;;0.10;0.10;;;20.00;78.30;;;;;;5048501;28;20052;-87
2022/05/27 09:19:00;;;;;;;0.10;0.10;;;20.10;81.80;;;;;;5038427;28;20106;-87
2022/05/27 09:22:03;;;;;;;0.15;0.15;;;19.70;78.30;;;;;;5053464;28;20044;-86
2022/05/27 09:24:39;;;;;;;0.70;0.40;;;20.20;81.70;;;;;;5054133;28;20737;-87
2022/05/27 09:27:14;;;;;;;0.00;0.00;;;21.50;77.60;;;;;;5053339;28;20065;-87
2022/05/27 09:30:06;;;;;;;0.30;0.30;;;20.60;79.00;;;;;;5038384;28;20171;-87
2022/05/27 09:32:35;;;;;;;0.03;0.03;;;20.20;82.00;;;;;;5042628;28;20037;-86
2022/05/27 09:35:10;;;;;;;0.80;0.75;;;20.40;79.00;;;;;;5055342;28;20041;-86
2022/05/27 09:37:39;;;;;;;0.00;0.00;;;20.60;77.80;;;;;;5055268;28;20044;-85
2022/05/27 09:40:17;;;;;;;0.10;0.10;;;20.40;78.50;;;;;;5054866;28;20045;-85
2022/05/27 09:42:50;;;;;;;0.17;0.05;;;21.10;77.90;;;;;;5036039;28;20056;-85
2022/05/27 09:45:16;;;;;;;0.35;0.35;;;20.50;76.00;;;;;;5049985;28;20051;-85
2022/05/27 09:47:42;;;;;;;0.50;0.47;;;20.50;77.60;;;;;;5037483;28;20037;-85
2022/05/27 09:50:46;;;;;;;0.32;0.32;;;19.30;80.50;;;;;;5053710;28;20090;-87
2022/05/27 09:53:19;;;;;;;0.10;0.10;;;19.10;84.20;;;;;;5031872;28;20060;-87
2022/05/27 09:56:04;;;;;;;0.52;0.52;;;20.20;79.90;;;;;;5034255;28;20049;-87
2022/05/27 09:58:37;;;;;;;0.17;0.17;;;19.90;78.90;;;;;;5034756;28;20045;-87
2022/05/27 10:01:27;;;;;;;2.75;1.45;;;19.90;81.20;;;;;;5037196;28;20114;-88
2022/05/27 10:04:02;;;;;;;0.65;0.52;;;20.20;80.40;;;;;;5054596;28;20033;-87
2022/05/27 10:06:30;;;;;;;0.00;0.00;;;20.20;79.50;;;;;;5054013;28;20089;-86
2022/05/27 10:09:03;;;;;;;0.43;0.43;;;20.10;79.30;;;;;;5034416;28;20037;-86
2022/05/27 10:11:50;;;;;;;0.28;0.28;;;20.20;76.30;;;;;;5039731;28;20040;-86
2022/05/27 10:14:23;;;;;;;6.20;1.08;;;20.40;78.30;;;;;;5053061;28;20099;-86
2022/05/27 10:17:09;;;;;;;0.20;0.20;;;19.80;78.70;;;;;;5037982;28;20544;-86
2022/05/27 10:19:40;;;;;;;4.65;0.65;;;19.00;83.00;;;;;;5053390;28;20041;-85
2022/05/27 10:22:22;;;;;;;0.10;0.10;;;19.20;83.40;;;;;;5033216;28;20530;-86
2022/05/27 10:25:16;;;;;;;1.08;0.85;;;20.30;82.10;;;;;;5033058;28;20036;-86
2022/05/27 10:27:53;;;;;;;0.03;0.03;;;21.40;76.00;;;;;;5033218;28;20033;-86
2022/05/27 10:30:29;;;;;;;0.22;0.22;;;22.10;76.50;;;;;;5015150;28;20384;-86
2022/05/27 10:32:55;;;;;;;;;;;21.70;74.30;;;;;;5015252;28;20045;-86
2022/05/27 10:35:21;;;;;;;;;;;20.50;76.80;;;;;;5015302;28;19917;-86
2022/05/27 10:38:16;;;;;;;1.13;1.10;;;19.80;82.00;;;;;;4998050;28;19970;-86
2022/05/27 10:41:00;;;;;;;6.82;0.90;;;20.00;83.00;;;;;;5014302;28;20081;-86
2022/05/27 10:43:55;;;;;;;1.00;0.43;;;20.90;78.90;;;;;;5014231;28;20034;-86
2022/05/27 10:46:33;;;;;;;0.32;0.32;;;20.70;79.20;;;;;;4997766;28;20044;-86
2022/05/27 10:49:13;;;;;;;1.15;0.30;;;19.40;81.20;;;;;;5014284;28;20125;-86
2022/05/27 10:51:52;;;;;;;0.25;0.20;;;18.70;82.10;;;;;;4997692;28;20096;-86
2022/05/27 10:54:50;;;;;;;0.10;0.10;;;18.80;81.90;;;;;;5013120;28;20041;-86
2022/05/27 11:04:22;;;;;;;0.00;0.00;;;18.80;79.90;;;;;;5016513;28;20089;-89
2022/05/27 11:07:17;;;;;;;0.00;0.00;;;18.80;82.30;;;;;;5016121;28;20033;-90
2022/05/27 11:10:22;;;;;;;0.75;0.75;;;18.70;83.70;;;;;;5029671;28;20128;-89
2022/05/27 11:16:03;;;;;;;0.35;0.30;;;20.30;83.00;;;;;;4973975;28;20129;-86
2022/05/27 11:18:51;;;;;;;0.00;0.00;;;19.90;80.80;;;;;;5017446;28;20566;-86
2022/05/27 11:21:38;;;;;;;0.00;0.00;;;18.30;84.30;;;;;;5046128;28;20102;-86
2022/05/27 11:24:16;;;;;;;2.20;1.48;;;17.80;87.20;;;;;;5053294;28;20055;-86
2022/05/27 11:27:21;;;;;;;10.07;0.35;;;17.40;89.40;;;;;;5045989;28;20077;-86
2022/05/27 11:29:56;;;;;;;0.00;0.00;;;17.40;89.10;;;;;;5033207;28;20399;-86
2022/05/27 11:32:49;;;;;;;0.20;0.20;;;17.60;87.80;;;;;;5016492;28;20049;-86
2022/05/27 11:35:27;;;;;;;0.43;0.43;;;17.70;89.10;;;;;;5016650;28;20073;-86
2022/05/27 11:37:55;;;;;;;8.57;1.77;;;17.50;89.50;;;;;;5033208;28;20398;-86
2022/05/27 11:40:35;;;;;;;0.38;0.38;;;17.00;90.10;;;;;;5016705;28;20499;-87
2022/05/27 11:43:22;;;;;;;1.13;0.75;;;17.20;90.40;;;;;;5016333;28;20126;-86
2022/05/27 11:46:06;;;;;;;;;;;17.30;90.50;;;;;;5033576;28;20054;-88
2022/05/27 11:49:10;;;;;;;0.30;0.30;;;17.70;90.40;;;;;;5016507;28;19940;-89
2022/05/27 11:51:40;;;;;;;0.30;0.30;;;17.50;90.70;;;;;;5049227;28;20041;-89
2022/05/27 11:54:20;;;;;;;0.65;0.65;;;17.30;89.10;;;;;;5063216;28;20040;-89
2022/05/27 11:56:52;;;;;;;0.68;0.45;;;17.20;90.40;;;;;;5052568;28;20098;-90
2022/05/27 11:59:22;;;;;;;0.35;0.35;;;16.80;91.20;;;;;;5052655;28;20045;-91
2022/05/27 12:01:56;;;;;;;0.32;0.30;;;16.60;91.80;;;;;;5035716;28;20484;-90
2022/05/27 12:04:31;;;;;;;1.98;0.98;;;16.50;92.10;;;;;;5052527;28;20122;-87
2022/05/27 12:07:06;;;;;;;0.30;0.30;;;16.70;92.50;;;;;;5052168;28;20479;-87
2022/05/27 12:09:47;;;;;;;0.47;0.40;;;16.70;92.50;;;;;;5052402;28;20041;-87
2022/05/27 12:12:29;;;;;;;0.00;0.00;;;16.70;92.50;;;;;;5052421;28;20118;-87
2022/05/27 12:15:06;;;;;;;0.10;0.10;;;16.90;93.00;;;;;;5035926;28;20454;-88
2022/05/27 12:17:40;;;;;;;0.10;0.10;;;17.00;92.70;;;;;;5035495;28;20045;-88
2022/05/27 12:20:07;;;;;;;0.80;0.30;;;16.80;92.20;;;;;;5035799;28;20063;-87
2022/05/27 12:22:35;;;;;;;0.17;0.17;;;16.80;92.10;;;;;;5052034;28;20048;-88
2022/05/27 12:25:14;;;;;;;0.00;0.00;;;16.70;92.40;;;;;;5035829;28;20041;-87
2022/05/27 12:27:40;;;;;;;0.10;0.10;;;16.80;92.70;;;;;;5052026;28;20037;-88
2022/05/27 12:30:08;;;;;;;0.00;0.00;;;16.40;94.20;;;;;;5052142;28;20044;-87
2022/05/27 12:32:38;;;;;;;0.40;0.40;;;16.40;93.30;;;;;;5052257;28;20045;-88
2022/05/27 12:35:26;;;;;;;0.20;0.20;;;16.50;93.60;;;;;;5052527;28;20048;-87
2022/05/27 12:37:58;;;;;;;0.03;0.03;;;16.20;93.30;;;;;;5035600;28;20047;-86
2022/05/27 12:40:32;;;;;;;0.20;0.20;;;16.40;94.40;;;;;;5051925;28;20044;-86
2022/05/27 12:43:22;;;;;;;0.20;0.20;;;16.30;93.70;;;;;;5051858;28;20040;-87
2022/05/27 12:45:47;;;;;;;0.05;0.05;;;16.40;94.10;;;;;;5035366;28;20075;-86
2022/05/27 12:48:28;;;;;;;0.25;0.25;;;16.00;94.70;;;;;;5051803;28;20041;-86
2022/05/27 12:51:04;;;;;;;0.10;0.10;;;16.00;95.40;;;;;;5051836;28;20083;-87
2022/05/27 12:53:52;;;;;;;0.00;0.00;;;16.30;95.70;;;;;;5052286;28;20051;-86
2022/05/27 13:02:20;;;;;;;0.00;0.00;;;16.50;94.70;;;;;;5051615;28;20049;-86
2022/05/27 13:05:04;;;;;;;0.55;0.22;;;16.50;95.10;;;;;;5051866;28;20402;-86
2022/05/27 13:07:33;;;;;;;6.22;1.00;;;16.00;95.30;;;;;;5051928;28;20045;-88
2022/05/27 13:10:17;;;;;;;1.40;1.00;;;16.10;95.60;;;;;;5035141;28;20037;-87
2022/05/27 13:12:48;;;;;;;0.00;0.00;;;16.00;96.10;;;;;;5051784;28;20041;-88
2022/05/27 13:15:28;;;;;;;0.30;0.30;;;15.80;95.40;;;;;;5051867;28;20041;-87
2022/05/27 13:18:19;;;;;;;0.20;0.20;;;15.50;95.60;;;;;;5035103;28;20364;-87
2022/05/27 13:20:53;;;;;;;0.52;0.20;;;15.70;95.60;;;;;;5051368;28;20106;-88
2022/05/27 13:23:25;;;;;;;0.03;0.03;;;16.20;96.60;;;;;;5051517;28;20095;-87
2022/05/27 13:26:08;;;;;;;0.22;0.20;;;16.70;96.10;;;;;;5051624;28;20127;-87
2022/05/27 13:28:48;;;;;;;2.72;0.88;;;16.70;95.20;;;;;;5051680;28;20372;-87
2022/05/27 13:31:20;;;;;;;0.10;0.10;;;16.60;95.10;;;;;;5051696;28;20045;-87
2022/05/27 13:33:59;;;;;;;0.30;0.30;;;16.10;95.10;;;;;;5035208;28;20048;-87
2022/05/27 13:36:35;;;;;;;2.40;0.30;;;15.80;96.00;;;;;;5051333;28;20041;-87
2022/05/27 13:39:05;;;;;;;31.70;0.85;;;15.60;96.90;;;;;;5051724;28;20041;-87
2022/05/27 13:41:55;;;;;;;0.00;0.00;;;15.60;97.70;;;;;;5054199;28;20044;-87
2022/05/27 13:44:24;;;;;;;0.00;0.00;;;16.20;98.60;;;;;;5054991;28;20182;-87
2022/05/27 13:46:58;;;;;;;0.00;0.00;;;16.50;97.50;;;;;;5054979;28;20048;-88
2022/05/27 13:49:32;;;;;;;0.10;0.10;;;16.60;96.50;;;;;;5055051;28;20116;-88
2022/05/27 13:51:59;;;;;;;0.03;0.03;;;16.40;95.30;;;;;;5038507;28;20048;-87
2022/05/27 13:54:34;;;;;;;0.10;0.10;;;16.70;95.40;;;;;;5051464;28;20119;-87